createdAt,value
2022-09-26T00:02:18.357Z,8.99
2022-09-26T00:07:22.656Z,9.00
2022-09-26T00:12:26.206Z,8.94
2022-09-26T00:17:30.716Z,8.79
2022-09-26T00:22:34.493Z,8.73
2022-09-26T00:27:38.120Z,8.80
2022-09-26T00:32:41.660Z,8.88
2022-09-26T00:37:45.353Z,8.85
2022-09-26T00:42:48.960Z,8.85
2022-09-26T00:47:58.945Z,8.86
2022-09-26T00:53:09.348Z,8.85
2022-09-26T00:58:16.664Z,8.80
2022-09-26T01:03:22.393Z,8.71
2022-09-26T01:08:33.079Z,8.60
2022-09-26T01:13:38.778Z,8.57
2022-09-26T01:18:42.836Z,8.53
2022-09-26T01:24:13.082Z,8.52
2022-09-26T01:29:52.572Z,8.48
2022-09-26T01:35:05.569Z,8.40
2022-09-26T01:40:16.669Z,8.37
2022-09-26T01:45:24.411Z,8.39
2022-09-26T01:50:35.055Z,8.45
2022-09-26T01:55:42.257Z,8.53
2022-09-26T02:00:49.618Z,8.56
2022-09-26T02:05:59.219Z,8.52
2022-09-26T02:11:09.021Z,8.52
2022-09-26T02:16:18.395Z,8.43
2022-09-26T02:21:24.641Z,8.38
2022-09-26T02:26:29.267Z,8.43
2022-09-26T02:31:36.734Z,8.57
2022-09-26T02:36:40.943Z,8.61
2022-09-26T02:41:50.672Z,8.58
2022-09-26T02:47:21.931Z,8.45
2022-09-26T02:52:40.075Z,8.40
2022-09-26T02:57:56.425Z,8.38
2022-09-26T03:03:08.043Z,8.39
2022-09-26T03:08:16.224Z,8.41
2022-09-26T03:13:20.531Z,8.42
2022-09-26T03:18:32.130Z,8.42
2022-09-26T03:23:35.994Z,8.45
2022-09-26T03:28:39.570Z,8.48
2022-09-26T03:33:43.083Z,8.51
2022-09-26T03:38:46.658Z,8.58
2022-09-26T03:43:50.521Z,8.65
2022-09-26T03:48:54.697Z,8.75
2022-09-26T03:53:58.326Z,8.80
2022-09-26T03:59:02.193Z,8.81
2022-09-26T04:04:05.806Z,8.84
2022-09-26T04:09:15.870Z,8.78
2022-09-26T04:14:21.281Z,8.72
2022-09-26T04:19:26.062Z,8.68
2022-09-26T04:24:29.684Z,8.69
2022-09-26T04:29:34.433Z,8.69
2022-09-26T04:34:39.604Z,8.71
2022-09-26T04:39:43.610Z,8.78
2022-09-26T04:44:48.043Z,8.86
2022-09-26T04:49:52.076Z,8.93
2022-09-26T04:54:55.691Z,9.04
2022-09-26T04:59:59.302Z,9.13
2022-09-26T05:05:05.541Z,9.21
2022-09-26T05:10:10.862Z,9.30
2022-09-26T05:15:14.444Z,9.37
2022-09-26T05:20:19.835Z,9.35
2022-09-26T05:25:41.062Z,9.30
2022-09-26T05:30:44.666Z,9.32
2022-09-26T05:35:52.953Z,9.37
2022-09-26T05:40:57.671Z,9.39
2022-09-26T05:46:04.141Z,9.45
2022-09-26T05:51:10.448Z,9.53
2022-09-26T05:56:19.040Z,9.60
2022-09-26T06:01:23.941Z,9.63
2022-09-26T06:06:27.690Z,9.63
2022-09-26T06:11:31.911Z,9.67
2022-09-26T06:16:35.543Z,9.74
2022-09-26T06:21:39.766Z,9.81
2022-09-26T06:26:43.424Z,9.88
2022-09-26T06:31:48.231Z,9.94
2022-09-26T06:36:52.963Z,10.00
2022-09-26T06:41:57.001Z,10.04
2022-09-26T06:47:01.360Z,10.08
2022-09-26T06:52:05.134Z,10.14
2022-09-26T06:57:14.168Z,10.25
2022-09-26T07:02:19.406Z,10.37
2022-09-26T07:07:23.357Z,10.45
2022-09-26T07:12:28.024Z,10.49
2022-09-26T07:17:31.735Z,10.59
2022-09-26T07:22:35.497Z,10.67
2022-09-26T07:27:39.370Z,10.77
2022-09-26T07:34:46.296Z,10.99
2022-09-26T07:39:54.762Z,11.09
2022-09-26T07:45:27.891Z,11.27
2022-09-26T07:50:29.075Z,11.41
2022-09-26T07:55:56.138Z,11.50
2022-09-26T08:01:02.452Z,11.56
2022-09-26T08:06:10.126Z,11.63
2022-09-26T08:11:19.873Z,11.73
2022-09-26T08:16:27.071Z,11.79
2022-09-26T08:21:35.395Z,11.87
2022-09-26T08:26:44.629Z,11.92
2022-09-26T08:31:55.131Z,11.97
2022-09-26T08:37:02.664Z,12.00
2022-09-26T08:42:24.342Z,12.03
2022-09-26T08:47:44.806Z,12.07
2022-09-26T08:52:55.476Z,12.10
2022-09-26T08:58:06.740Z,12.14
2022-09-26T09:03:27.603Z,12.18
2022-09-26T09:08:39.887Z,12.19
2022-09-26T09:13:57.687Z,12.11
2022-09-26T09:19:14.363Z,12.03
2022-09-26T09:24:39.593Z,12.01
2022-09-26T09:30:15.730Z,11.96
2022-09-26T09:35:31.402Z,11.95
2022-09-26T09:40:42.864Z,11.94
2022-09-26T09:45:52.640Z,11.91
2022-09-26T09:51:13.557Z,11.95
2022-09-26T09:56:32.389Z,12.03
2022-09-26T10:01:43.737Z,12.09
2022-09-26T10:06:52.787Z,12.15
2022-09-26T10:12:00.274Z,12.19
2022-09-26T10:17:22.571Z,12.20
2022-09-26T10:22:37.607Z,12.18
2022-09-26T10:27:51.894Z,12.15
2022-09-26T10:33:01.625Z,12.21
2022-09-26T10:38:19.990Z,12.29
2022-09-26T10:43:33.802Z,12.37
2022-09-26T10:48:49.057Z,12.45
2022-09-26T10:54:01.335Z,12.51
2022-09-26T10:59:10.363Z,12.60
2022-09-26T11:04:39.422Z,12.71
2022-09-26T11:09:48.449Z,12.82
2022-09-26T11:14:59.637Z,12.85
2022-09-26T11:20:10.823Z,12.90
2022-09-26T11:25:25.719Z,12.97
2022-09-26T11:30:35.932Z,13.07
2022-09-26T11:35:56.401Z,13.19
2022-09-26T11:41:36.920Z,13.27
2022-09-26T11:46:58.699Z,13.36
2022-09-26T11:52:18.109Z,13.37
2022-09-26T11:57:45.725Z,13.44
2022-09-26T12:03:17.362Z,13.46
2022-09-26T12:08:40.779Z,13.52
2022-09-26T12:13:55.109Z,13.75
2022-09-26T12:19:11.608Z,13.95
2022-09-26T12:24:32.664Z,13.97
2022-09-26T12:29:45.713Z,13.97
2022-09-26T12:35:08.323Z,13.93
2022-09-26T12:40:33.521Z,14.03
2022-09-26T12:46:10.746Z,14.17
2022-09-26T12:51:28.838Z,14.26
2022-09-26T12:56:49.088Z,14.31
2022-09-26T13:02:19.612Z,14.37
2022-09-26T13:07:42.376Z,14.51
2022-09-26T13:13:23.678Z,14.55
2022-09-26T13:18:39.988Z,14.63
2022-09-26T13:23:54.166Z,14.75
2022-09-26T13:29:17.281Z,14.85
2022-09-26T13:34:35.586Z,14.78
2022-09-26T13:39:49.260Z,14.69
2022-09-26T13:45:09.120Z,14.59
2022-09-26T13:50:34.115Z,14.51
2022-09-26T13:55:43.510Z,14.54
2022-09-26T14:00:53.603Z,14.59
2022-09-26T14:06:29.175Z,14.63
2022-09-26T14:11:51.585Z,14.66
2022-09-26T14:17:03.298Z,14.71
2022-09-26T14:29:55.937Z,14.84
2022-09-26T14:35:05.573Z,14.85
2022-09-26T14:40:29.075Z,14.86
2022-09-26T14:45:49.984Z,14.81
2022-09-26T14:51:00.648Z,14.76
2022-09-26T14:56:11.665Z,14.73
2022-09-26T15:01:25.193Z,14.69
2022-09-26T15:06:37.978Z,14.66
2022-09-26T15:11:47.682Z,14.66
2022-09-26T15:16:58.054Z,14.65
2022-09-26T15:22:13.511Z,14.64
2022-09-26T15:27:27.294Z,14.66
2022-09-26T15:32:35.187Z,14.61
2022-09-26T15:37:42.752Z,14.58
2022-09-26T15:43:03.308Z,14.55
2022-09-26T15:48:27.584Z,14.52
2022-09-26T15:53:39.915Z,14.49
2022-09-26T15:58:53.887Z,14.47
2022-09-26T16:04:03.604Z,14.42
2022-09-26T16:09:20.807Z,14.36
2022-09-26T16:14:33.496Z,14.27
2022-09-26T16:19:47.769Z,14.12
2022-09-26T16:24:55.376Z,13.99
2022-09-26T16:30:05.278Z,13.92
2022-09-26T16:35:20.332Z,13.81
2022-09-26T16:40:28.056Z,13.50
2022-09-26T16:45:36.086Z,13.25
2022-09-26T16:50:43.485Z,13.18
2022-09-26T16:55:52.693Z,13.15
2022-09-26T17:01:17.472Z,13.09
2022-09-26T17:06:24.643Z,12.93
2022-09-26T17:11:31.650Z,12.77
2022-09-26T17:16:38.752Z,12.63
2022-09-26T17:21:49.492Z,12.55
2022-09-26T17:27:02.361Z,12.50
2022-09-26T17:32:15.403Z,12.48
2022-09-26T17:37:23.291Z,12.38
2022-09-26T17:42:30.832Z,12.32
2022-09-26T17:47:38.045Z,12.30
2022-09-26T17:52:45.465Z,12.24
2022-09-26T17:57:52.460Z,12.15
2022-09-26T18:03:05.162Z,12.12
2022-09-26T18:08:22.324Z,12.17
2022-09-26T18:13:34.139Z,12.21
2022-09-26T18:18:41.019Z,12.25
2022-09-26T18:23:51.914Z,12.30
2022-09-26T18:29:00.091Z,12.33
2022-09-26T18:34:08.055Z,12.35
2022-09-26T18:39:15.326Z,12.35
2022-09-26T18:44:22.834Z,12.32
2022-09-26T18:49:31.225Z,12.28
2022-09-26T18:54:38.684Z,12.13
2022-09-26T18:59:45.823Z,11.99
2022-09-26T19:04:54.973Z,11.94
2022-09-26T19:10:02.632Z,11.93
2022-09-26T19:15:16.632Z,11.88
2022-09-26T19:20:23.840Z,11.69
2022-09-26T19:25:31.293Z,11.48
2022-09-26T19:30:38.620Z,11.35
2022-09-26T19:35:47.654Z,11.29
2022-09-26T19:40:55.160Z,11.10
2022-09-26T19:46:04.670Z,10.92
2022-09-26T19:51:17.046Z,10.70
2022-09-26T19:56:26.544Z,10.62
2022-09-26T20:01:34.036Z,10.55
2022-09-26T20:06:41.601Z,10.49
2022-09-26T20:11:48.853Z,10.48
2022-09-26T20:16:58.714Z,10.45
2022-09-26T20:22:12.839Z,10.31
2022-09-26T20:27:23.321Z,10.15
2022-09-26T20:32:30.425Z,10.06
2022-09-26T20:37:41.151Z,10.05
2022-09-26T20:42:51.937Z,10.13
2022-09-26T20:47:59.525Z,10.17
2022-09-26T20:53:17.544Z,10.09
2022-09-26T20:58:25.240Z,10.01
2022-09-26T21:03:33.286Z,9.94
2022-09-26T21:08:40.518Z,9.81
2022-09-26T21:13:47.736Z,9.76
2022-09-26T21:18:55.514Z,9.77
2022-09-26T21:24:03.359Z,9.78
2022-09-26T21:29:17.261Z,9.77
2022-09-26T21:34:27.160Z,9.81
2022-09-26T21:39:34.544Z,9.80
2022-09-26T21:44:44.741Z,9.76
2022-09-26T21:49:51.883Z,9.68
2022-09-26T21:55:00.717Z,9.60
2022-09-26T22:00:10.558Z,9.52
2022-09-26T22:05:18.588Z,9.45
2022-09-26T22:10:26.012Z,9.41
2022-09-26T22:17:04.391Z,9.36
2022-09-26T22:22:11.368Z,9.26
2022-09-26T22:27:16.629Z,9.20
2022-09-26T22:32:23.646Z,9.12
2022-09-26T22:37:31.044Z,9.07
2022-09-26T22:42:38.142Z,9.03
2022-09-26T22:47:43.406Z,9.06
2022-09-26T22:52:50.236Z,8.99
2022-09-26T22:57:55.576Z,8.87
2022-09-26T23:03:02.374Z,8.80
2022-09-26T23:08:09.468Z,8.78
2022-09-26T23:13:16.364Z,8.77
2022-09-26T23:18:22.082Z,8.74
2022-09-26T23:23:28.936Z,8.70
2022-09-26T23:28:36.440Z,8.63
2022-09-26T23:33:43.337Z,8.56
2022-09-26T23:38:53.509Z,8.47
2022-09-26T23:44:00.680Z,8.38
2022-09-26T23:49:07.806Z,8.30
2022-09-26T23:54:13.124Z,8.21
2022-09-26T23:59:19.975Z,8.14
